sensor_id;sensor_type;location;lat;lon;timestamp;P1;durP1;ratioP1;P2;durP2;ratioP2
44446;SDS011;30152;52.066;5.358;2022-12-29T07:08:31;14.82;;;2.08;;
44446;SDS011;30152;52.066;5.358;2022-12-29T07:10:56;22.30;;;1.95;;
44446;SDS011;30152;52.066;5.358;2022-12-29T07:13:22;13.15;;;1.38;;
44446;SDS011;30152;52.066;5.358;2022-12-29T07:15:48;14.40;;;1.48;;
44446;SDS011;30152;52.066;5.358;2022-12-29T07:18:13;6.63;;;1.48;;
44446;SDS011;30152;52.066;5.358;2022-12-29T07:20:39;8.85;;;1.30;;
44446;SDS011;30152;52.066;5.358;2022-12-29T07:23:04;11.70;;;1.63;;
44446;SDS011;30152;52.066;5.358;2022-12-29T07:25:30;11.45;;;1.25;;
44446;SDS011;30152;52.066;5.358;2022-12-29T07:27:56;8.88;;;1.40;;
44446;SDS011;30152;52.066;5.358;2022-12-29T07:30:21;11.98;;;1.25;;
44446;SDS011;30152;52.066;5.358;2022-12-29T07:32:47;14.45;;;1.70;;
44446;SDS011;30152;52.066;5.358;2022-12-29T07:35:13;11.35;;;1.48;;
44446;SDS011;30152;52.066;5.358;2022-12-29T07:37:40;6.80;;;1.42;;
44446;SDS011;30152;52.066;5.358;2022-12-29T07:40:06;16.70;;;1.85;;
44446;SDS011;30152;52.066;5.358;2022-12-29T07:42:32;10.05;;;1.92;;
44446;SDS011;30152;52.066;5.358;2022-12-29T07:44:58;8.48;;;1.33;;
44446;SDS011;30152;52.066;5.358;2022-12-29T07:47:24;11.07;;;1.75;;
44446;SDS011;30152;52.066;5.358;2022-12-29T07:49:50;7.47;;;1.42;;
44446;SDS011;30152;52.066;5.358;2022-12-29T07:52:16;8.48;;;1.40;;
44446;SDS011;30152;52.066;5.358;2022-12-29T07:54:41;9.48;;;1.42;;
44446;SDS011;30152;52.066;5.358;2022-12-29T07:57:07;16.63;;;1.70;;
44446;SDS011;30152;52.066;5.358;2022-12-29T07:59:32;12.35;;;1.95;;
44446;SDS011;30152;52.066;5.358;2022-12-29T08:01:58;10.65;;;1.83;;
44446;SDS011;30152;52.066;5.358;2022-12-29T08:04:24;8.48;;;1.48;;
44446;SDS011;30152;52.066;5.358;2022-12-29T08:06:50;10.40;;;1.55;;
44446;SDS011;30152;52.066;5.358;2022-12-29T08:09:15;8.68;;;1.30;;
44446;SDS011;30152;52.066;5.358;2022-12-29T08:11:41;14.65;;;1.95;;
44446;SDS011;30152;52.066;5.358;2022-12-29T08:14:08;16.73;;;2.95;;
44446;SDS011;30152;52.066;5.358;2022-12-29T08:16:34;10.50;;;1.65;;
44446;SDS011;30152;52.066;5.358;2022-12-29T08:19:00;17.45;;;2.10;;
44446;SDS011;30152;52.066;5.358;2022-12-29T08:21:27;17.23;;;2.17;;
44446;SDS011;30152;52.066;5.358;2022-12-29T08:23:53;11.50;;;1.17;;
44446;SDS011;30152;52.066;5.358;2022-12-29T08:26:19;15.30;;;1.65;;
44446;SDS011;30152;52.066;5.358;2022-12-29T08:28:45;16.63;;;1.83;;
44446;SDS011;30152;52.066;5.358;2022-12-29T08:31:10;17.80;;;1.83;;
44446;SDS011;30152;52.066;5.358;2022-12-29T08:33:35;13.63;;;1.63;;
44446;SDS011;30152;52.066;5.358;2022-12-29T08:36:02;16.38;;;2.17;;
44446;SDS011;30152;52.066;5.358;2022-12-29T08:38:29;13.60;;;1.60;;
44446;SDS011;30152;52.066;5.358;2022-12-29T08:40:55;11.73;;;2.08;;
44446;SDS011;30152;52.066;5.358;2022-12-29T08:43:22;15.30;;;2.08;;
44446;SDS011;30152;52.066;5.358;2022-12-29T08:45:47;12.57;;;1.95;;
44446;SDS011;30152;52.066;5.358;2022-12-29T08:48:13;11.98;;;1.58;;
44446;SDS011;30152;52.066;5.358;2022-12-29T08:50:43;11.75;;;1.48;;
44446;SDS011;30152;52.066;5.358;2022-12-29T08:53:09;13.65;;;1.67;;
44446;SDS011;30152;52.066;5.358;2022-12-29T08:55:34;14.70;;;1.88;;
44446;SDS011;30152;52.066;5.358;2022-12-29T08:58:00;16.13;;;1.83;;
44446;SDS011;30152;52.066;5.358;2022-12-29T09:00:26;19.23;;;2.10;;
44446;SDS011;30152;52.066;5.358;2022-12-29T09:02:52;14.90;;;1.60;;
44446;SDS011;30152;52.066;5.358;2022-12-29T09:05:17;13.65;;;1.50;;
44446;SDS011;30152;52.066;5.358;2022-12-29T09:07:43;15.18;;;1.77;;
44446;SDS011;30152;52.066;5.358;2022-12-29T09:10:09;11.35;;;1.67;;
44446;SDS011;30152;52.066;5.358;2022-12-29T09:12:34;14.13;;;1.60;;
44446;SDS011;30152;52.066;5.358;2022-12-29T09:15:00;13.88;;;1.35;;
44446;SDS011;30152;52.066;5.358;2022-12-29T09:17:26;13.60;;;2.22;;
44446;SDS011;30152;52.066;5.358;2022-12-29T09:20:08;17.27;;;2.00;;
44446;SDS011;30152;52.066;5.358;2022-12-29T09:22:34;9.57;;;1.92;;
44446;SDS011;30152;52.066;5.358;2022-12-29T09:25:01;11.48;;;2.20;;
44446;SDS011;30152;52.066;5.358;2022-12-29T09:27:26;16.65;;;2.40;;
44446;SDS011;30152;52.066;5.358;2022-12-29T09:29:52;11.68;;;1.83;;
44446;SDS011;30152;52.066;5.358;2022-12-29T09:32:17;13.10;;;2.03;;
44446;SDS011;30152;52.066;5.358;2022-12-29T09:34:43;15.13;;;1.83;;
44446;SDS011;30152;52.066;5.358;2022-12-29T09:37:08;7.88;;;1.70;;
44446;SDS011;30152;52.066;5.358;2022-12-29T09:39:34;16.13;;;1.75;;
44446;SDS011;30152;52.066;5.358;2022-12-29T09:42:07;9.38;;;1.63;;
44446;SDS011;30152;52.066;5.358;2022-12-29T09:47:42;11.75;;;1.60;;
44446;SDS011;30152;52.066;5.358;2022-12-29T09:50:13;16.60;;;2.00;;
44446;SDS011;30152;52.066;5.358;2022-12-29T09:55:55;9.98;;;1.55;;
44446;SDS011;30152;52.066;5.358;2022-12-29T09:58:24;12.05;;;1.77;;
44446;SDS011;30152;52.066;5.358;2022-12-29T10:03:34;10.80;;;1.40;;
44446;SDS011;30152;52.066;5.358;2022-12-29T10:14:40;13.23;;;2.13;;
44446;SDS011;30152;52.066;5.358;2022-12-29T10:25:24;8.88;;;1.90;;
44446;SDS011;30152;52.066;5.358;2022-12-29T10:27:53;10.23;;;1.52;;
44446;SDS011;30152;52.066;5.358;2022-12-29T10:30:21;10.50;;;1.85;;
44446;SDS011;30152;52.066;5.358;2022-12-29T10:32:49;9.57;;;1.40;;
44446;SDS011;30152;52.066;5.358;2022-12-29T10:35:19;8.77;;;1.50;;
44446;SDS011;30152;52.066;5.358;2022-12-29T10:38:01;9.13;;;1.63;;
44446;SDS011;30152;52.066;5.358;2022-12-29T10:40:38;10.05;;;1.90;;
44446;SDS011;30152;52.066;5.358;2022-12-29T10:45:59;15.77;;;2.38;;
44446;SDS011;30152;52.066;5.358;2022-12-29T10:48:33;6.90;;;1.50;;
44446;SDS011;30152;52.066;5.358;2022-12-29T10:51:00;11.35;;;2.00;;
44446;SDS011;30152;52.066;5.358;2022-12-29T10:53:34;9.40;;;1.95;;
44446;SDS011;30152;52.066;5.358;2022-12-29T10:56:13;15.38;;;2.50;;
44446;SDS011;30152;52.066;5.358;2022-12-29T10:58:46;14.93;;;2.75;;
44446;SDS011;30152;52.066;5.358;2022-12-29T11:01:14;16.83;;;2.72;;
44446;SDS011;30152;52.066;5.358;2022-12-29T11:03:54;10.60;;;2.13;;
44446;SDS011;30152;52.066;5.358;2022-12-29T11:06:27;9.48;;;2.10;;
44446;SDS011;30152;52.066;5.358;2022-12-29T11:08:58;12.23;;;2.45;;
44446;SDS011;30152;52.066;5.358;2022-12-29T11:11:34;16.63;;;3.50;;
44446;SDS011;30152;52.066;5.358;2022-12-29T11:14:10;12.95;;;2.60;;
44446;SDS011;30152;52.066;5.358;2022-12-29T11:16:38;13.50;;;2.17;;
44446;SDS011;30152;52.066;5.358;2022-12-29T11:19:10;19.10;;;3.13;;
44446;SDS011;30152;52.066;5.358;2022-12-29T11:21:48;14.75;;;3.00;;
44446;SDS011;30152;52.066;5.358;2022-12-29T11:24:21;13.93;;;2.72;;
44446;SDS011;30152;52.066;5.358;2022-12-29T11:26:55;14.18;;;2.67;;
44446;SDS011;30152;52.066;5.358;2022-12-29T11:29:41;14.80;;;2.58;;
44446;SDS011;30152;52.066;5.358;2022-12-29T11:32:16;17.25;;;3.05;;
44446;SDS011;30152;52.066;5.358;2022-12-29T11:34:49;14.65;;;2.80;;
44446;SDS011;30152;52.066;5.358;2022-12-29T11:37:23;15.80;;;3.38;;
44446;SDS011;30152;52.066;5.358;2022-12-29T11:40:04;12.48;;;2.53;;
44446;SDS011;30152;52.066;5.358;2022-12-29T11:42:35;15.40;;;3.15;;
44446;SDS011;30152;52.066;5.358;2022-12-29T11:45:09;12.95;;;2.30;;
44446;SDS011;30152;52.066;5.358;2022-12-29T11:47:53;19.80;;;4.07;;
44446;SDS011;30152;52.066;5.358;2022-12-29T11:50:27;16.48;;;2.17;;
44446;SDS011;30152;52.066;5.358;2022-12-29T11:52:59;14.63;;;2.28;;
44446;SDS011;30152;52.066;5.358;2022-12-29T11:55:32;20.38;;;3.00;;
44446;SDS011;30152;52.066;5.358;2022-12-29T11:57:58;18.30;;;2.40;;
44446;SDS011;30152;52.066;5.358;2022-12-29T12:00:27;13.25;;;2.42;;
44446;SDS011;30152;52.066;5.358;2022-12-29T12:02:57;17.20;;;2.35;;
44446;SDS011;30152;52.066;5.358;2022-12-29T12:05:39;18.80;;;2.50;;
44446;SDS011;30152;52.066;5.358;2022-12-29T12:08:31;11.27;;;1.95;;
44446;SDS011;30152;52.066;5.358;2022-12-29T12:11:26;20.33;;;2.67;;
44446;SDS011;30152;52.066;5.358;2022-12-29T12:16:50;23.67;;;3.85;;
44446;SDS011;30152;52.066;5.358;2022-12-29T12:22:03;20.52;;;3.95;;
44446;SDS011;30152;52.066;5.358;2022-12-29T12:27:18;17.52;;;3.53;;
44446;SDS011;30152;52.066;5.358;2022-12-29T12:35:11;18.10;;;3.33;;
44446;SDS011;30152;52.066;5.358;2022-12-29T12:40:29;15.38;;;3.50;;
44446;SDS011;30152;52.066;5.358;2022-12-29T12:48:59;16.02;;;2.60;;
44446;SDS011;30152;52.066;5.358;2022-12-29T12:54:05;18.70;;;3.13;;
44446;SDS011;30152;52.066;5.358;2022-12-29T12:56:42;23.23;;;3.53;;
44446;SDS011;30152;52.066;5.358;2022-12-29T13:01:40;22.10;;;2.38;;
44446;SDS011;30152;52.066;5.358;2022-12-29T13:06:46;17.15;;;3.58;;
44446;SDS011;30152;52.066;5.358;2022-12-29T13:12:06;18.50;;;3.35;;
44446;SDS011;30152;52.066;5.358;2022-12-29T13:17:25;22.08;;;3.88;;
44446;SDS011;30152;52.066;5.358;2022-12-29T13:30:02;14.25;;;3.30;;
44446;SDS011;30152;52.066;5.358;2022-12-29T13:32:32;18.83;;;4.85;;
44446;SDS011;30152;52.066;5.358;2022-12-29T13:37:54;24.05;;;4.80;;
44446;SDS011;30152;52.066;5.358;2022-12-29T13:40:23;18.88;;;3.83;;
44446;SDS011;30152;52.066;5.358;2022-12-29T13:42:50;18.98;;;3.47;;
44446;SDS011;30152;52.066;5.358;2022-12-29T13:45:20;15.73;;;3.03;;
44446;SDS011;30152;52.066;5.358;2022-12-29T13:47:49;16.58;;;2.85;;
44446;SDS011;30152;52.066;5.358;2022-12-29T13:50:17;21.25;;;3.83;;
44446;SDS011;30152;52.066;5.358;2022-12-29T13:52:55;14.93;;;2.97;;
44446;SDS011;30152;52.066;5.358;2022-12-29T13:55:44;15.85;;;2.83;;
44446;SDS011;30152;52.066;5.358;2022-12-29T13:58:13;19.30;;;2.80;;
44446;SDS011;30152;52.066;5.358;2022-12-29T14:01:43;14.20;;;3.53;;
44446;SDS011;30152;52.066;5.358;2022-12-29T14:06:05;18.08;;;2.28;;
44446;SDS011;30152;52.066;5.358;2022-12-29T14:08:36;23.38;;;2.95;;
44446;SDS011;30152;52.066;5.358;2022-12-29T14:11:06;16.77;;;2.40;;
44446;SDS011;30152;52.066;5.358;2022-12-29T14:13:33;11.02;;;2.17;;
44446;SDS011;30152;52.066;5.358;2022-12-29T14:16:03;7.78;;;1.70;;
44446;SDS011;30152;52.066;5.358;2022-12-29T14:18:30;11.10;;;1.73;;
44446;SDS011;30152;52.066;5.358;2022-12-29T14:20:58;8.38;;;1.25;;
44446;SDS011;30152;52.066;5.358;2022-12-29T14:23:46;4.82;;;1.00;;
44446;SDS011;30152;52.066;5.358;2022-12-29T14:28:41;7.68;;;1.08;;
44446;SDS011;30152;52.066;5.358;2022-12-29T14:34:14;5.68;;;0.80;;
44446;SDS011;30152;52.066;5.358;2022-12-29T14:36:37;5.18;;;0.95;;
44446;SDS011;30152;52.066;5.358;2022-12-29T14:39:04;7.85;;;0.90;;
44446;SDS011;30152;52.066;5.358;2022-12-29T14:42:10;8.88;;;0.98;;
44446;SDS011;30152;52.066;5.358;2022-12-29T14:44:45;4.33;;;1.00;;
44446;SDS011;30152;52.066;5.358;2022-12-29T14:47:11;8.68;;;1.02;;
44446;SDS011;30152;52.066;5.358;2022-12-29T14:50:07;6.80;;;1.05;;
44446;SDS011;30152;52.066;5.358;2022-12-29T15:01:15;9.18;;;2.47;;
44446;SDS011;30152;52.066;5.358;2022-12-29T15:03:48;9.45;;;1.60;;
44446;SDS011;30152;52.066;5.358;2022-12-29T15:06:16;9.90;;;1.83;;
44446;SDS011;30152;52.066;5.358;2022-12-29T15:09:47;13.60;;;1.63;;
44446;SDS011;30152;52.066;5.358;2022-12-29T15:11:49;8.38;;;1.85;;
44446;SDS011;30152;52.066;5.358;2022-12-29T15:14:28;7.30;;;1.75;;
44446;SDS011;30152;52.066;5.358;2022-12-29T15:17:01;9.95;;;1.70;;
44446;SDS011;30152;52.066;5.358;2022-12-29T15:19:36;8.65;;;1.48;;
44446;SDS011;30152;52.066;5.358;2022-12-29T15:22:02;12.27;;;2.03;;
44446;SDS011;30152;52.066;5.358;2022-12-29T15:24:28;11.73;;;2.40;;
44446;SDS011;30152;52.066;5.358;2022-12-29T15:26:54;8.57;;;1.45;;
44446;SDS011;30152;52.066;5.358;2022-12-29T15:29:36;10.73;;;1.90;;
44446;SDS011;30152;52.066;5.358;2022-12-29T15:32:17;8.38;;;1.70;;
44446;SDS011;30152;52.066;5.358;2022-12-29T15:34:45;13.77;;;1.85;;
44446;SDS011;30152;52.066;5.358;2022-12-29T15:37:20;9.63;;;1.92;;
44446;SDS011;30152;52.066;5.358;2022-12-29T15:40:19;11.00;;;1.58;;
44446;SDS011;30152;52.066;5.358;2022-12-29T15:45:27;9.02;;;1.50;;
44446;SDS011;30152;52.066;5.358;2022-12-29T15:47:56;12.82;;;1.65;;
44446;SDS011;30152;52.066;5.358;2022-12-29T15:52:57;9.93;;;1.30;;
44446;SDS011;30152;52.066;5.358;2022-12-29T15:55:31;11.75;;;1.65;;
44446;SDS011;30152;52.066;5.358;2022-12-29T15:58:00;13.98;;;1.95;;
44446;SDS011;30152;52.066;5.358;2022-12-29T16:00:29;8.88;;;1.88;;
44446;SDS011;30152;52.066;5.358;2022-12-29T16:03:01;12.60;;;1.55;;
44446;SDS011;30152;52.066;5.358;2022-12-29T16:05:36;9.65;;;1.50;;
44446;SDS011;30152;52.066;5.358;2022-12-29T16:08:03;7.47;;;1.83;;
44446;SDS011;30152;52.066;5.358;2022-12-29T16:10:45;11.60;;;1.80;;
44446;SDS011;30152;52.066;5.358;2022-12-29T16:13:19;9.27;;;1.85;;
44446;SDS011;30152;52.066;5.358;2022-12-29T16:15:55;15.25;;;1.52;;
44446;SDS011;30152;52.066;5.358;2022-12-29T16:18:26;12.32;;;1.60;;
44446;SDS011;30152;52.066;5.358;2022-12-29T16:20:53;7.20;;;1.25;;
44446;SDS011;30152;52.066;5.358;2022-12-29T16:23:24;9.02;;;1.33;;
44446;SDS011;30152;52.066;5.358;2022-12-29T16:25:51;6.75;;;2.10;;
44446;SDS011;30152;52.066;5.358;2022-12-29T16:28:22;10.07;;;1.67;;
44446;SDS011;30152;52.066;5.358;2022-12-29T16:30:57;15.88;;;1.77;;
44446;SDS011;30152;52.066;5.358;2022-12-29T16:33:51;8.85;;;2.08;;
44446;SDS011;30152;52.066;5.358;2022-12-29T16:36:22;14.73;;;1.95;;
44446;SDS011;30152;52.066;5.358;2022-12-29T16:39:04;12.30;;;1.77;;
44446;SDS011;30152;52.066;5.358;2022-12-29T16:41:46;9.00;;;1.58;;
44446;SDS011;30152;52.066;5.358;2022-12-29T16:44:19;12.40;;;2.42;;
44446;SDS011;30152;52.066;5.358;2022-12-29T16:49:27;6.78;;;1.15;;
44446;SDS011;30152;52.066;5.358;2022-12-29T16:51:53;6.13;;;1.13;;
44446;SDS011;30152;52.066;5.358;2022-12-29T16:54:22;7.70;;;1.02;;
44446;SDS011;30152;52.066;5.358;2022-12-29T16:57:01;15.32;;;2.15;;
44446;SDS011;30152;52.066;5.358;2022-12-29T17:01:56;9.77;;;1.17;;
44446;SDS011;30152;52.066;5.358;2022-12-29T17:04:23;8.10;;;1.40;;
44446;SDS011;30152;52.066;5.358;2022-12-29T17:06:49;11.27;;;1.67;;
44446;SDS011;30152;52.066;5.358;2022-12-29T17:09:22;9.75;;;1.30;;
44446;SDS011;30152;52.066;5.358;2022-12-29T17:11:53;12.75;;;1.95;;
44446;SDS011;30152;52.066;5.358;2022-12-29T17:17:06;9.98;;;1.30;;
44446;SDS011;30152;52.066;5.358;2022-12-29T17:19:41;15.32;;;1.92;;
44446;SDS011;30152;52.066;5.358;2022-12-29T17:22:10;11.63;;;1.80;;
44446;SDS011;30152;52.066;5.358;2022-12-29T17:24:39;11.93;;;1.40;;
44446;SDS011;30152;52.066;5.358;2022-12-29T17:27:05;8.80;;;1.48;;
44446;SDS011;30152;52.066;5.358;2022-12-29T17:29:32;13.05;;;1.42;;
44446;SDS011;30152;52.066;5.358;2022-12-29T17:32:02;14.15;;;2.83;;
44446;SDS011;30152;52.066;5.358;2022-12-29T17:34:29;13.50;;;1.70;;
44446;SDS011;30152;52.066;5.358;2022-12-29T17:36:55;13.45;;;1.70;;
44446;SDS011;30152;52.066;5.358;2022-12-29T17:39:21;9.43;;;1.10;;
44446;SDS011;30152;52.066;5.358;2022-12-29T17:41:46;18.48;;;1.77;;
44446;SDS011;30152;52.066;5.358;2022-12-29T17:44:14;10.85;;;1.70;;
44446;SDS011;30152;52.066;5.358;2022-12-29T17:46:42;11.32;;;1.73;;
44446;SDS011;30152;52.066;5.358;2022-12-29T17:49:12;20.15;;;2.15;;
44446;SDS011;30152;52.066;5.358;2022-12-29T17:51:39;10.70;;;1.88;;
44446;SDS011;30152;52.066;5.358;2022-12-29T17:54:08;8.07;;;1.77;;
44446;SDS011;30152;52.066;5.358;2022-12-29T17:56:43;14.65;;;2.60;;
44446;SDS011;30152;52.066;5.358;2022-12-29T17:59:12;13.60;;;2.05;;
44446;SDS011;30152;52.066;5.358;2022-12-29T18:01:38;11.55;;;1.88;;
44446;SDS011;30152;52.066;5.358;2022-12-29T18:04:04;11.23;;;1.77;;
44446;SDS011;30152;52.066;5.358;2022-12-29T18:06:30;12.85;;;2.50;;
44446;SDS011;30152;52.066;5.358;2022-12-29T18:08:55;9.32;;;1.65;;
44446;SDS011;30152;52.066;5.358;2022-12-29T18:11:21;7.63;;;1.40;;
44446;SDS011;30152;52.066;5.358;2022-12-29T18:13:49;17.95;;;2.47;;
44446;SDS011;30152;52.066;5.358;2022-12-29T18:16:15;14.32;;;2.17;;
44446;SDS011;30152;52.066;5.358;2022-12-29T18:18:40;17.05;;;2.45;;
44446;SDS011;30152;52.066;5.358;2022-12-29T18:21:08;10.80;;;1.90;;
44446;SDS011;30152;52.066;5.358;2022-12-29T18:23:39;17.25;;;1.90;;
44446;SDS011;30152;52.066;5.358;2022-12-29T18:26:06;13.05;;;1.95;;
44446;SDS011;30152;52.066;5.358;2022-12-29T18:28:44;13.60;;;1.85;;
44446;SDS011;30152;52.066;5.358;2022-12-29T18:31:20;20.27;;;2.20;;
44446;SDS011;30152;52.066;5.358;2022-12-29T18:33:48;17.27;;;2.13;;
44446;SDS011;30152;52.066;5.358;2022-12-29T18:36:15;16.50;;;3.10;;
44446;SDS011;30152;52.066;5.358;2022-12-29T18:38:41;15.32;;;2.35;;
44446;SDS011;30152;52.066;5.358;2022-12-29T18:41:12;15.80;;;1.92;;
44446;SDS011;30152;52.066;5.358;2022-12-29T18:43:40;11.85;;;2.05;;
44446;SDS011;30152;52.066;5.358;2022-12-29T18:46:06;13.55;;;1.90;;
44446;SDS011;30152;52.066;5.358;2022-12-29T18:48:32;16.42;;;2.15;;
44446;SDS011;30152;52.066;5.358;2022-12-29T18:50:57;19.02;;;2.15;;
44446;SDS011;30152;52.066;5.358;2022-12-29T18:53:24;14.60;;;1.83;;
44446;SDS011;30152;52.066;5.358;2022-12-29T18:55:50;12.07;;;2.10;;
44446;SDS011;30152;52.066;5.358;2022-12-29T18:58:16;20.45;;;2.67;;
44446;SDS011;30152;52.066;5.358;2022-12-29T19:00:43;12.52;;;1.90;;
44446;SDS011;30152;52.066;5.358;2022-12-29T19:03:12;17.77;;;2.75;;
44446;SDS011;30152;52.066;5.358;2022-12-29T19:05:40;14.05;;;2.45;;
44446;SDS011;30152;52.066;5.358;2022-12-29T19:08:07;14.38;;;2.17;;
44446;SDS011;30152;52.066;5.358;2022-12-29T19:10:34;10.85;;;2.28;;
44446;SDS011;30152;52.066;5.358;2022-12-29T19:13:00;12.52;;;2.00;;
44446;SDS011;30152;52.066;5.358;2022-12-29T19:15:27;14.68;;;2.30;;
44446;SDS011;30152;52.066;5.358;2022-12-29T19:17:55;23.08;;;2.78;;
44446;SDS011;30152;52.066;5.358;2022-12-29T19:22:48;18.23;;;2.03;;
44446;SDS011;30152;52.066;5.358;2022-12-29T19:25:13;23.70;;;3.47;;
44446;SDS011;30152;52.066;5.358;2022-12-29T19:27:39;14.05;;;3.08;;
44446;SDS011;30152;52.066;5.358;2022-12-29T19:30:04;17.08;;;2.95;;
44446;SDS011;30152;52.066;5.358;2022-12-29T19:32:30;19.60;;;3.05;;
44446;SDS011;30152;52.066;5.358;2022-12-29T19:34:56;23.80;;;3.95;;
44446;SDS011;30152;52.066;5.358;2022-12-29T19:37:22;14.25;;;2.42;;
44446;SDS011;30152;52.066;5.358;2022-12-29T19:39:47;14.30;;;2.20;;
44446;SDS011;30152;52.066;5.358;2022-12-29T19:42:13;19.48;;;2.65;;
44446;SDS011;30152;52.066;5.358;2022-12-29T19:44:38;22.25;;;3.33;;
44446;SDS011;30152;52.066;5.358;2022-12-29T19:47:04;24.83;;;3.15;;
44446;SDS011;30152;52.066;5.358;2022-12-29T19:49:30;17.40;;;2.75;;
44446;SDS011;30152;52.066;5.358;2022-12-29T19:51:55;25.48;;;3.67;;
44446;SDS011;30152;52.066;5.358;2022-12-29T19:54:21;17.13;;;2.65;;
44446;SDS011;30152;52.066;5.358;2022-12-29T19:56:47;21.45;;;3.55;;
44446;SDS011;30152;52.066;5.358;2022-12-29T19:59:13;21.10;;;2.90;;
44446;SDS011;30152;52.066;5.358;2022-12-29T20:01:38;19.85;;;2.60;;
44446;SDS011;30152;52.066;5.358;2022-12-29T20:04:04;20.60;;;3.20;;
44446;SDS011;30152;52.066;5.358;2022-12-29T20:06:29;31.58;;;3.53;;
44446;SDS011;30152;52.066;5.358;2022-12-29T20:08:55;25.13;;;3.90;;
44446;SDS011;30152;52.066;5.358;2022-12-29T20:11:20;16.67;;;2.85;;
44446;SDS011;30152;52.066;5.358;2022-12-29T20:13:46;15.90;;;2.63;;
44446;SDS011;30152;52.066;5.358;2022-12-29T20:16:13;19.85;;;3.15;;
44446;SDS011;30152;52.066;5.358;2022-12-29T20:18:40;19.35;;;2.70;;
44446;SDS011;30152;52.066;5.358;2022-12-29T20:21:16;17.25;;;2.17;;
44446;SDS011;30152;52.066;5.358;2022-12-29T20:23:44;24.13;;;2.80;;
44446;SDS011;30152;52.066;5.358;2022-12-29T20:26:15;22.02;;;2.83;;
44446;SDS011;30152;52.066;5.358;2022-12-29T20:28:45;31.60;;;3.22;;
44446;SDS011;30152;52.066;5.358;2022-12-29T20:31:18;24.77;;;4.07;;
44446;SDS011;30152;52.066;5.358;2022-12-29T20:33:44;25.25;;;3.78;;
44446;SDS011;30152;52.066;5.358;2022-12-29T20:36:11;15.48;;;2.78;;
44446;SDS011;30152;52.066;5.358;2022-12-29T20:38:39;26.98;;;2.97;;
44446;SDS011;30152;52.066;5.358;2022-12-29T20:41:05;24.40;;;3.25;;
44446;SDS011;30152;52.066;5.358;2022-12-29T20:43:31;23.67;;;3.15;;
44446;SDS011;30152;52.066;5.358;2022-12-29T20:45:56;21.27;;;3.20;;
44446;SDS011;30152;52.066;5.358;2022-12-29T20:48:22;22.48;;;3.75;;
44446;SDS011;30152;52.066;5.358;2022-12-29T20:50:47;18.92;;;3.35;;
44446;SDS011;30152;52.066;5.358;2022-12-29T20:53:13;21.50;;;3.80;;
44446;SDS011;30152;52.066;5.358;2022-12-29T20:55:38;19.00;;;2.83;;
44446;SDS011;30152;52.066;5.358;2022-12-29T20:58:04;22.17;;;3.33;;
44446;SDS011;30152;52.066;5.358;2022-12-29T21:00:30;15.32;;;2.45;;
44446;SDS011;30152;52.066;5.358;2022-12-29T21:02:57;16.13;;;3.08;;
44446;SDS011;30152;52.066;5.358;2022-12-29T21:05:23;17.63;;;3.08;;
44446;SDS011;30152;52.066;5.358;2022-12-29T21:07:49;22.60;;;3.30;;
44446;SDS011;30152;52.066;5.358;2022-12-29T21:10:15;21.60;;;3.42;;
44446;SDS011;30152;52.066;5.358;2022-12-29T21:12:41;23.52;;;3.83;;
44446;SDS011;30152;52.066;5.358;2022-12-29T21:15:07;20.77;;;2.88;;
44446;SDS011;30152;52.066;5.358;2022-12-29T21:17:33;20.38;;;2.53;;
44446;SDS011;30152;52.066;5.358;2022-12-29T21:19:59;22.20;;;3.22;;
44446;SDS011;30152;52.066;5.358;2022-12-29T21:22:25;18.98;;;2.95;;
44446;SDS011;30152;52.066;5.358;2022-12-29T21:24:51;18.92;;;3.60;;
44446;SDS011;30152;52.066;5.358;2022-12-29T21:27:17;18.08;;;2.53;;
44446;SDS011;30152;52.066;5.358;2022-12-29T21:29:43;17.15;;;3.10;;
44446;SDS011;30152;52.066;5.358;2022-12-29T21:32:08;17.60;;;3.05;;
44446;SDS011;30152;52.066;5.358;2022-12-29T21:34:34;17.95;;;3.25;;
44446;SDS011;30152;52.066;5.358;2022-12-29T21:37:00;19.02;;;2.88;;
44446;SDS011;30152;52.066;5.358;2022-12-29T21:39:25;24.80;;;3.15;;
44446;SDS011;30152;52.066;5.358;2022-12-29T21:41:51;17.08;;;3.30;;
44446;SDS011;30152;52.066;5.358;2022-12-29T21:44:17;17.95;;;2.95;;
44446;SDS011;30152;52.066;5.358;2022-12-29T21:47:01;14.68;;;3.53;;
44446;SDS011;30152;52.066;5.358;2022-12-29T21:49:27;19.70;;;3.08;;
44446;SDS011;30152;52.066;5.358;2022-12-29T21:51:53;16.42;;;3.50;;
44446;SDS011;30152;52.066;5.358;2022-12-29T21:57:04;18.55;;;2.97;;
44446;SDS011;30152;52.066;5.358;2022-12-29T21:59:30;17.73;;;3.13;;
44446;SDS011;30152;52.066;5.358;2022-12-29T22:05:06;18.15;;;3.38;;
44446;SDS011;30152;52.066;5.358;2022-12-29T22:07:52;21.00;;;3.00;;
44446;SDS011;30152;52.066;5.358;2022-12-29T22:10:40;23.80;;;3.13;;
44446;SDS011;30152;52.066;5.358;2022-12-29T22:13:25;18.10;;;3.67;;
44446;SDS011;30152;52.066;5.358;2022-12-29T22:15:51;16.92;;;2.63;;
44446;SDS011;30152;52.066;5.358;2022-12-29T22:18:17;20.90;;;2.47;;
44446;SDS011;30152;52.066;5.358;2022-12-29T22:20:43;18.95;;;3.25;;
44446;SDS011;30152;52.066;5.358;2022-12-29T22:23:09;18.58;;;2.70;;
44446;SDS011;30152;52.066;5.358;2022-12-29T22:25:36;14.50;;;2.60;;
44446;SDS011;30152;52.066;5.358;2022-12-29T22:28:03;20.45;;;3.30;;
44446;SDS011;30152;52.066;5.358;2022-12-29T22:30:29;17.55;;;2.42;;
44446;SDS011;30152;52.066;5.358;2022-12-29T22:32:56;16.05;;;2.22;;
44446;SDS011;30152;52.066;5.358;2022-12-29T22:35:23;19.27;;;2.85;;
44446;SDS011;30152;52.066;5.358;2022-12-29T22:37:49;17.10;;;3.00;;
44446;SDS011;30152;52.066;5.358;2022-12-29T22:40:15;18.85;;;2.80;;
44446;SDS011;30152;52.066;5.358;2022-12-29T22:42:40;22.27;;;3.33;;
